sensor_id;sensor_type;location;lat;lon;timestamp;temperature;humidity
72576;DHT22;60613;48.658;2.328;2022-08-19T00:01:28;27.40;41.60
72576;DHT22;60613;48.658;2.328;2022-08-19T00:03:59;27.40;42.90
72576;DHT22;60613;48.658;2.328;2022-08-19T00:06:26;27.40;41.80
72576;DHT22;60613;48.658;2.328;2022-08-19T00:08:52;27.30;41.60
72576;DHT22;60613;48.658;2.328;2022-08-19T00:11:18;27.40;41.70
72576;DHT22;60613;48.658;2.328;2022-08-19T00:13:44;27.40;41.60
72576;DHT22;60613;48.658;2.328;2022-08-19T00:16:14;27.30;41.60
72576;DHT22;60613;48.658;2.328;2022-08-19T00:18:39;27.30;41.60
72576;DHT22;60613;48.658;2.328;2022-08-19T00:21:05;27.30;41.70
72576;DHT22;60613;48.658;2.328;2022-08-19T00:23:35;27.30;41.70
72576;DHT22;60613;48.658;2.328;2022-08-19T00:26:03;27.30;41.70
72576;DHT22;60613;48.658;2.328;2022-08-19T00:28:29;27.30;41.70
72576;DHT22;60613;48.658;2.328;2022-08-19T00:30:55;27.30;41.60
72576;DHT22;60613;48.658;2.328;2022-08-19T00:33:21;27.40;41.60
72576;DHT22;60613;48.658;2.328;2022-08-19T00:35:47;27.30;41.50
72576;DHT22;60613;48.658;2.328;2022-08-19T00:38:13;27.40;41.60
72576;DHT22;60613;48.658;2.328;2022-08-19T00:40:39;27.30;41.50
72576;DHT22;60613;48.658;2.328;2022-08-19T00:43:10;27.30;41.60
72576;DHT22;60613;48.658;2.328;2022-08-19T00:45:36;27.40;41.60
72576;DHT22;60613;48.658;2.328;2022-08-19T00:48:02;27.40;41.60
72576;DHT22;60613;48.658;2.328;2022-08-19T00:50:31;27.40;41.70
72576;DHT22;60613;48.658;2.328;2022-08-19T00:52:58;27.40;41.60
72576;DHT22;60613;48.658;2.328;2022-08-19T00:55:26;27.30;41.60
72576;DHT22;60613;48.658;2.328;2022-08-19T00:58:02;27.40;41.60
72576;DHT22;60613;48.658;2.328;2022-08-19T01:00:29;27.40;41.60
72576;DHT22;60613;48.658;2.328;2022-08-19T01:02:55;27.40;41.60
72576;DHT22;60613;48.658;2.328;2022-08-19T01:05:24;27.40;41.60
72576;DHT22;60613;48.658;2.328;2022-08-19T01:07:53;27.40;41.50
72576;DHT22;60613;48.658;2.328;2022-08-19T01:10:22;27.30;41.50
72576;DHT22;60613;48.658;2.328;2022-08-19T01:12:48;27.30;41.50
72576;DHT22;60613;48.658;2.328;2022-08-19T01:15:17;27.30;41.60
72576;DHT22;60613;48.658;2.328;2022-08-19T01:17:45;27.20;41.60
72576;DHT22;60613;48.658;2.328;2022-08-19T01:20:17;27.30;41.70
72576;DHT22;60613;48.658;2.328;2022-08-19T01:22:48;27.30;41.60
72576;DHT22;60613;48.658;2.328;2022-08-19T01:25:17;27.20;41.60
72576;DHT22;60613;48.658;2.328;2022-08-19T01:27:46;27.30;41.60
72576;DHT22;60613;48.658;2.328;2022-08-19T01:30:17;27.30;41.60
72576;DHT22;60613;48.658;2.328;2022-08-19T01:32:43;27.30;41.60
72576;DHT22;60613;48.658;2.328;2022-08-19T01:35:10;27.30;41.50
72576;DHT22;60613;48.658;2.328;2022-08-19T01:37:59;27.20;41.60
72576;DHT22;60613;48.658;2.328;2022-08-19T01:40:28;27.20;41.70
72576;DHT22;60613;48.658;2.328;2022-08-19T01:42:55;27.20;41.70
72576;DHT22;60613;48.658;2.328;2022-08-19T01:45:24;27.20;41.70
72576;DHT22;60613;48.658;2.328;2022-08-19T01:47:50;27.20;41.60
72576;DHT22;60613;48.658;2.328;2022-08-19T01:50:15;27.20;41.60
72576;DHT22;60613;48.658;2.328;2022-08-19T01:52:43;27.20;41.70
72576;DHT22;60613;48.658;2.328;2022-08-19T01:55:13;27.10;41.70
72576;DHT22;60613;48.658;2.328;2022-08-19T01:57:42;27.10;41.80
72576;DHT22;60613;48.658;2.328;2022-08-19T02:00:10;27.10;41.70
72576;DHT22;60613;48.658;2.328;2022-08-19T02:02:36;27.10;41.60
72576;DHT22;60613;48.658;2.328;2022-08-19T02:05:03;27.10;41.80
72576;DHT22;60613;48.658;2.328;2022-08-19T02:07:29;27.10;41.70
72576;DHT22;60613;48.658;2.328;2022-08-19T02:09:54;27.10;41.90
72576;DHT22;60613;48.658;2.328;2022-08-19T02:12:21;27.00;41.90
72576;DHT22;60613;48.658;2.328;2022-08-19T02:14:46;27.10;41.90
72576;DHT22;60613;48.658;2.328;2022-08-19T02:17:12;27.00;41.90
72576;DHT22;60613;48.658;2.328;2022-08-19T02:19:37;27.00;43.00
72576;DHT22;60613;48.658;2.328;2022-08-19T02:22:03;27.00;41.70
72576;DHT22;60613;48.658;2.328;2022-08-19T02:24:29;27.00;41.90
72576;DHT22;60613;48.658;2.328;2022-08-19T02:26:55;26.90;41.90
72576;DHT22;60613;48.658;2.328;2022-08-19T02:29:20;26.90;42.00
72576;DHT22;60613;48.658;2.328;2022-08-19T02:31:46;27.00;41.90
72576;DHT22;60613;48.658;2.328;2022-08-19T02:34:12;27.00;41.90
72576;DHT22;60613;48.658;2.328;2022-08-19T02:36:38;27.00;42.00
72576;DHT22;60613;48.658;2.328;2022-08-19T02:39:03;27.00;41.90
72576;DHT22;60613;48.658;2.328;2022-08-19T02:41:31;26.90;41.90
72576;DHT22;60613;48.658;2.328;2022-08-19T02:44:01;27.00;41.90
72576;DHT22;60613;48.658;2.328;2022-08-19T02:46:31;26.90;41.80
72576;DHT22;60613;48.658;2.328;2022-08-19T02:49:00;26.90;41.80
72576;DHT22;60613;48.658;2.328;2022-08-19T02:51:41;26.90;41.90
72576;DHT22;60613;48.658;2.328;2022-08-19T02:54:08;27.00;41.90
72576;DHT22;60613;48.658;2.328;2022-08-19T02:56:35;26.90;42.00
72576;DHT22;60613;48.658;2.328;2022-08-19T02:59:03;26.90;41.90
72576;DHT22;60613;48.658;2.328;2022-08-19T03:01:33;26.90;42.00
72576;DHT22;60613;48.658;2.328;2022-08-19T03:04:00;26.90;41.90
72576;DHT22;60613;48.658;2.328;2022-08-19T03:06:27;26.90;41.90
72576;DHT22;60613;48.658;2.328;2022-08-19T03:08:53;26.90;41.90
72576;DHT22;60613;48.658;2.328;2022-08-19T03:11:23;26.90;41.90
72576;DHT22;60613;48.658;2.328;2022-08-19T03:13:49;26.80;41.90
72576;DHT22;60613;48.658;2.328;2022-08-19T03:16:17;26.90;41.90
72576;DHT22;60613;48.658;2.328;2022-08-19T03:18:43;26.80;41.90
72576;DHT22;60613;48.658;2.328;2022-08-19T03:21:09;26.80;41.90
72576;DHT22;60613;48.658;2.328;2022-08-19T03:23:35;26.80;41.90
72576;DHT22;60613;48.658;2.328;2022-08-19T03:26:04;26.80;41.90
72576;DHT22;60613;48.658;2.328;2022-08-19T03:28:30;26.80;41.90
72576;DHT22;60613;48.658;2.328;2022-08-19T03:31:02;26.80;41.90
72576;DHT22;60613;48.658;2.328;2022-08-19T03:33:30;26.80;41.90
72576;DHT22;60613;48.658;2.328;2022-08-19T03:36:07;26.80;41.90
72576;DHT22;60613;48.658;2.328;2022-08-19T03:38:40;26.80;42.00
72576;DHT22;60613;48.658;2.328;2022-08-19T03:41:08;26.80;42.00
72576;DHT22;60613;48.658;2.328;2022-08-19T03:43:36;26.80;41.80
72576;DHT22;60613;48.658;2.328;2022-08-19T03:46:10;26.80;41.80
72576;DHT22;60613;48.658;2.328;2022-08-19T03:48:37;26.80;41.80
72576;DHT22;60613;48.658;2.328;2022-08-19T03:51:05;26.80;41.80
72576;DHT22;60613;48.658;2.328;2022-08-19T03:53:32;26.80;41.90
72576;DHT22;60613;48.658;2.328;2022-08-19T03:55:58;26.70;42.00
72576;DHT22;60613;48.658;2.328;2022-08-19T03:58:28;26.70;41.90
72576;DHT22;60613;48.658;2.328;2022-08-19T04:00:56;26.80;41.90
72576;DHT22;60613;48.658;2.328;2022-08-19T04:03:23;26.70;41.80
72576;DHT22;60613;48.658;2.328;2022-08-19T04:05:49;26.70;41.90
72576;DHT22;60613;48.658;2.328;2022-08-19T04:08:16;26.70;41.80
72576;DHT22;60613;48.658;2.328;2022-08-19T04:10:46;26.70;41.80
72576;DHT22;60613;48.658;2.328;2022-08-19T04:13:11;26.70;41.90
72576;DHT22;60613;48.658;2.328;2022-08-19T04:15:42;26.70;41.90
72576;DHT22;60613;48.658;2.328;2022-08-19T04:18:09;26.70;41.80
72576;DHT22;60613;48.658;2.328;2022-08-19T04:20:46;26.70;41.80
72576;DHT22;60613;48.658;2.328;2022-08-19T04:23:13;26.70;41.80
72576;DHT22;60613;48.658;2.328;2022-08-19T04:25:41;26.70;41.90
72576;DHT22;60613;48.658;2.328;2022-08-19T04:28:08;26.70;41.80
72576;DHT22;60613;48.658;2.328;2022-08-19T04:30:54;26.70;41.70
72576;DHT22;60613;48.658;2.328;2022-08-19T04:33:23;26.70;41.80
72576;DHT22;60613;48.658;2.328;2022-08-19T04:35:51;26.70;43.00
72576;DHT22;60613;48.658;2.328;2022-08-19T04:38:20;26.70;41.80
72576;DHT22;60613;48.658;2.328;2022-08-19T04:40:49;26.70;41.90
72576;DHT22;60613;48.658;2.328;2022-08-19T04:43:35;26.70;41.90
72576;DHT22;60613;48.658;2.328;2022-08-19T04:46:07;26.70;41.90
72576;DHT22;60613;48.658;2.328;2022-08-19T04:48:33;26.60;41.90
72576;DHT22;60613;48.658;2.328;2022-08-19T04:50:59;26.60;41.90
72576;DHT22;60613;48.658;2.328;2022-08-19T04:53:25;26.60;42.10
72576;DHT22;60613;48.658;2.328;2022-08-19T04:55:52;26.60;42.10
72576;DHT22;60613;48.658;2.328;2022-08-19T04:58:18;26.60;41.90
72576;DHT22;60613;48.658;2.328;2022-08-19T05:00:43;26.60;41.90
72576;DHT22;60613;48.658;2.328;2022-08-19T05:03:09;26.70;42.00
72576;DHT22;60613;48.658;2.328;2022-08-19T05:05:40;26.70;42.00
72576;DHT22;60613;48.658;2.328;2022-08-19T05:08:06;26.70;41.90
72576;DHT22;60613;48.658;2.328;2022-08-19T05:10:35;26.60;41.90
72576;DHT22;60613;48.658;2.328;2022-08-19T05:13:01;26.60;41.90
72576;DHT22;60613;48.658;2.328;2022-08-19T05:15:26;26.60;41.90
72576;DHT22;60613;48.658;2.328;2022-08-19T05:17:52;26.70;42.10
72576;DHT22;60613;48.658;2.328;2022-08-19T05:20:38;26.60;41.90
72576;DHT22;60613;48.658;2.328;2022-08-19T05:23:22;26.60;42.00
72576;DHT22;60613;48.658;2.328;2022-08-19T05:25:48;26.60;42.10
72576;DHT22;60613;48.658;2.328;2022-08-19T05:28:13;26.60;41.90
72576;DHT22;60613;48.658;2.328;2022-08-19T05:30:39;26.60;41.90
72576;DHT22;60613;48.658;2.328;2022-08-19T05:33:07;26.60;42.10
72576;DHT22;60613;48.658;2.328;2022-08-19T05:35:36;26.60;42.10
72576;DHT22;60613;48.658;2.328;2022-08-19T05:38:02;26.60;42.10
72576;DHT22;60613;48.658;2.328;2022-08-19T05:40:28;26.50;42.10
72576;DHT22;60613;48.658;2.328;2022-08-19T05:42:54;26.60;42.10
72576;DHT22;60613;48.658;2.328;2022-08-19T05:45:20;26.60;42.00
72576;DHT22;60613;48.658;2.328;2022-08-19T05:47:47;26.60;42.00
72576;DHT22;60613;48.658;2.328;2022-08-19T05:50:13;26.60;42.10
72576;DHT22;60613;48.658;2.328;2022-08-19T05:52:38;26.50;42.10
72576;DHT22;60613;48.658;2.328;2022-08-19T05:55:04;26.50;42.10
72576;DHT22;60613;48.658;2.328;2022-08-19T05:57:31;26.60;42.10
72576;DHT22;60613;48.658;2.328;2022-08-19T05:59:57;26.50;42.10
72576;DHT22;60613;48.658;2.328;2022-08-19T06:02:22;26.60;42.10
72576;DHT22;60613;48.658;2.328;2022-08-19T06:04:48;26.60;42.10
72576;DHT22;60613;48.658;2.328;2022-08-19T06:07:14;26.60;42.00
72576;DHT22;60613;48.658;2.328;2022-08-19T06:09:41;26.60;42.00
72576;DHT22;60613;48.658;2.328;2022-08-19T06:12:06;26.60;42.10
72576;DHT22;60613;48.658;2.328;2022-08-19T06:14:34;26.50;42.00
72576;DHT22;60613;48.658;2.328;2022-08-19T06:17:00;26.50;42.10
72576;DHT22;60613;48.658;2.328;2022-08-19T06:19:28;26.50;42.10
72576;DHT22;60613;48.658;2.328;2022-08-19T06:21:56;26.50;42.20
72576;DHT22;60613;48.658;2.328;2022-08-19T06:24:25;26.50;42.20
72576;DHT22;60613;48.658;2.328;2022-08-19T06:26:53;26.50;42.30
72576;DHT22;60613;48.658;2.328;2022-08-19T06:29:22;26.50;42.30
72576;DHT22;60613;48.658;2.328;2022-08-19T06:31:51;26.50;42.30
72576;DHT22;60613;48.658;2.328;2022-08-19T06:34:18;26.50;42.30
72576;DHT22;60613;48.658;2.328;2022-08-19T06:36:50;26.50;42.30
72576;DHT22;60613;48.658;2.328;2022-08-19T06:39:26;26.50;42.30
72576;DHT22;60613;48.658;2.328;2022-08-19T06:41:55;26.50;42.30
72576;DHT22;60613;48.658;2.328;2022-08-19T06:44:23;26.50;42.30
72576;DHT22;60613;48.658;2.328;2022-08-19T06:46:50;26.50;42.30
72576;DHT22;60613;48.658;2.328;2022-08-19T06:49:16;26.50;42.30
72576;DHT22;60613;48.658;2.328;2022-08-19T06:51:44;26.50;42.30
72576;DHT22;60613;48.658;2.328;2022-08-19T06:54:10;26.50;42.30
72576;DHT22;60613;48.658;2.328;2022-08-19T06:56:37;26.50;42.30
72576;DHT22;60613;48.658;2.328;2022-08-19T06:59:10;26.50;42.20
72576;DHT22;60613;48.658;2.328;2022-08-19T07:01:38;26.50;42.40
72576;DHT22;60613;48.658;2.328;2022-08-19T07:04:06;26.50;42.30
72576;DHT22;60613;48.658;2.328;2022-08-19T07:06:34;26.50;42.50
72576;DHT22;60613;48.658;2.328;2022-08-19T07:09:00;26.50;42.50
72576;DHT22;60613;48.658;2.328;2022-08-19T07:11:26;26.50;42.40
72576;DHT22;60613;48.658;2.328;2022-08-19T07:13:52;26.50;42.30
72576;DHT22;60613;48.658;2.328;2022-08-19T07:16:19;26.50;42.30
72576;DHT22;60613;48.658;2.328;2022-08-19T07:18:47;26.50;42.30
72576;DHT22;60613;48.658;2.328;2022-08-19T07:21:20;26.50;42.40
72576;DHT22;60613;48.658;2.328;2022-08-19T07:23:47;26.40;42.30
72576;DHT22;60613;48.658;2.328;2022-08-19T07:26:19;26.50;42.30
72576;DHT22;60613;48.658;2.328;2022-08-19T07:28:47;26.50;42.40
72576;DHT22;60613;48.658;2.328;2022-08-19T07:31:17;26.50;42.30
72576;DHT22;60613;48.658;2.328;2022-08-19T07:33:44;26.50;42.30
72576;DHT22;60613;48.658;2.328;2022-08-19T07:36:12;26.40;42.40
72576;DHT22;60613;48.658;2.328;2022-08-19T07:38:41;26.40;42.40
72576;DHT22;60613;48.658;2.328;2022-08-19T07:41:14;26.40;42.50
72576;DHT22;60613;48.658;2.328;2022-08-19T07:43:40;26.40;42.40
72576;DHT22;60613;48.658;2.328;2022-08-19T07:46:06;26.50;42.50
72576;DHT22;60613;48.658;2.328;2022-08-19T07:48:32;26.40;42.50
72576;DHT22;60613;48.658;2.328;2022-08-19T07:51:02;26.50;42.50
72576;DHT22;60613;48.658;2.328;2022-08-19T07:53:29;26.40;42.40
72576;DHT22;60613;48.658;2.328;2022-08-19T07:55:57;26.40;42.50
72576;DHT22;60613;48.658;2.328;2022-08-19T07:58:35;26.40;42.50
72576;DHT22;60613;48.658;2.328;2022-08-19T08:01:03;26.40;42.50
72576;DHT22;60613;48.658;2.328;2022-08-19T08:03:30;26.50;42.50
72576;DHT22;60613;48.658;2.328;2022-08-19T08:06:15;26.40;42.50
72576;DHT22;60613;48.658;2.328;2022-08-19T08:09:00;26.40;42.50
72576;DHT22;60613;48.658;2.328;2022-08-19T08:11:45;26.40;42.50
72576;DHT22;60613;48.658;2.328;2022-08-19T08:14:16;26.40;42.50
72576;DHT22;60613;48.658;2.328;2022-08-19T08:16:42;26.40;42.50
72576;DHT22;60613;48.658;2.328;2022-08-19T08:19:09;26.40;42.50
72576;DHT22;60613;48.658;2.328;2022-08-19T08:21:35;26.40;42.50
72576;DHT22;60613;48.658;2.328;2022-08-19T08:24:01;26.40;42.50
72576;DHT22;60613;48.658;2.328;2022-08-19T08:26:26;26.40;42.50
72576;DHT22;60613;48.658;2.328;2022-08-19T08:28:53;26.40;42.50
72576;DHT22;60613;48.658;2.328;2022-08-19T08:31:19;26.40;42.50
72576;DHT22;60613;48.658;2.328;2022-08-19T08:33:45;26.40;42.60
72576;DHT22;60613;48.658;2.328;2022-08-19T08:36:12;26.40;42.50
72576;DHT22;60613;48.658;2.328;2022-08-19T08:38:40;26.40;42.50
72576;DHT22;60613;48.658;2.328;2022-08-19T08:43:54;26.40;42.60
72576;DHT22;60613;48.658;2.328;2022-08-19T08:46:36;26.40;42.50
72576;DHT22;60613;48.658;2.328;2022-08-19T08:52:18;26.40;42.50
72576;DHT22;60613;48.658;2.328;2022-08-19T08:54:48;26.40;42.60
72576;DHT22;60613;48.658;2.328;2022-08-19T08:58:06;26.40;42.50
72576;DHT22;60613;48.658;2.328;2022-08-19T09:00:19;26.40;42.50
72576;DHT22;60613;48.658;2.328;2022-08-19T09:02:46;26.40;42.50
72576;DHT22;60613;48.658;2.328;2022-08-19T09:05:12;26.40;42.60
72576;DHT22;60613;48.658;2.328;2022-08-19T09:07:50;26.40;42.50
72576;DHT22;60613;48.658;2.328;2022-08-19T09:10:49;26.40;42.50
72576;DHT22;60613;48.658;2.328;2022-08-19T09:13:44;26.40;42.50
72576;DHT22;60613;48.658;2.328;2022-08-19T09:16:18;26.40;42.50
72576;DHT22;60613;48.658;2.328;2022-08-19T09:18:48;26.40;42.60
72576;DHT22;60613;48.658;2.328;2022-08-19T09:21:17;26.40;42.50
72576;DHT22;60613;48.658;2.328;2022-08-19T09:23:44;26.40;42.60
72576;DHT22;60613;48.658;2.328;2022-08-19T09:26:12;26.40;42.60
72576;DHT22;60613;48.658;2.328;2022-08-19T09:28:40;26.40;42.70
72576;DHT22;60613;48.658;2.328;2022-08-19T09:31:17;26.40;42.60
72576;DHT22;60613;48.658;2.328;2022-08-19T09:33:43;26.40;42.50
72576;DHT22;60613;48.658;2.328;2022-08-19T09:36:11;26.50;42.50
72576;DHT22;60613;48.658;2.328;2022-08-19T09:38:38;26.50;42.60
72576;DHT22;60613;48.658;2.328;2022-08-19T09:41:09;26.50;42.40
72576;DHT22;60613;48.658;2.328;2022-08-19T09:43:37;26.50;42.50
72576;DHT22;60613;48.658;2.328;2022-08-19T09:46:04;26.50;42.50
72576;DHT22;60613;48.658;2.328;2022-08-19T09:48:40;26.50;42.50
72576;DHT22;60613;48.658;2.328;2022-08-19T09:51:09;26.50;42.50
72576;DHT22;60613;48.658;2.328;2022-08-19T09:53:37;26.50;42.40
72576;DHT22;60613;48.658;2.328;2022-08-19T09:56:04;26.50;42.50
72576;DHT22;60613;48.658;2.328;2022-08-19T09:58:30;26.50;42.40
72576;DHT22;60613;48.658;2.328;2022-08-19T10:01:00;26.50;42.40
72576;DHT22;60613;48.658;2.328;2022-08-19T10:03:27;26.50;42.40
72576;DHT22;60613;48.658;2.328;2022-08-19T10:05:54;26.50;42.50
72576;DHT22;60613;48.658;2.328;2022-08-19T10:08:27;26.50;42.50
72576;DHT22;60613;48.658;2.328;2022-08-19T10:10:55;26.50;42.40
72576;DHT22;60613;48.658;2.328;2022-08-19T10:13:24;26.50;42.40
72576;DHT22;60613;48.658;2.328;2022-08-19T10:15:52;26.50;42.30
72576;DHT22;60613;48.658;2.328;2022-08-19T10:18:20;26.50;42.40
72576;DHT22;60613;48.658;2.328;2022-08-19T10:20:47;26.50;42.40
72576;DHT22;60613;48.658;2.328;2022-08-19T10:23:13;26.50;42.40
72576;DHT22;60613;48.658;2.328;2022-08-19T10:25:40;26.50;42.40
72576;DHT22;60613;48.658;2.328;2022-08-19T10:28:06;26.50;42.40
72576;DHT22;60613;48.658;2.328;2022-08-19T10:30:33;26.50;42.50
72576;DHT22;60613;48.658;2.328;2022-08-19T10:32:58;26.50;42.70
72576;DHT22;60613;48.658;2.328;2022-08-19T10:35:24;26.50;42.50
72576;DHT22;60613;48.658;2.328;2022-08-19T10:37:53;26.50;42.60
72576;DHT22;60613;48.658;2.328;2022-08-19T10:40:18;26.50;42.40
72576;DHT22;60613;48.658;2.328;2022-08-19T10:42:44;26.50;42.50
72576;DHT22;60613;48.658;2.328;2022-08-19T10:45:10;26.50;42.40
72576;DHT22;60613;48.658;2.328;2022-08-19T10:47:36;26.60;42.40
72576;DHT22;60613;48.658;2.328;2022-08-19T10:50:02;26.60;42.40
72576;DHT22;60613;48.658;2.328;2022-08-19T10:52:48;26.50;42.30
72576;DHT22;60613;48.658;2.328;2022-08-19T10:55:14;26.60;42.40
72576;DHT22;60613;48.658;2.328;2022-08-19T10:57:58;26.60;42.30
72576;DHT22;60613;48.658;2.328;2022-08-19T11:00:25;26.60;42.40
72576;DHT22;60613;48.658;2.328;2022-08-19T11:02:51;26.60;42.30
72576;DHT22;60613;48.658;2.328;2022-08-19T11:05:18;26.60;42.30
72576;DHT22;60613;48.658;2.328;2022-08-19T11:07:44;26.60;42.30
72576;DHT22;60613;48.658;2.328;2022-08-19T11:10:12;26.50;42.40
72576;DHT22;60613;48.658;2.328;2022-08-19T11:12:39;26.60;42.40
72576;DHT22;60613;48.658;2.328;2022-08-19T11:15:09;26.50;42.30
72576;DHT22;60613;48.658;2.328;2022-08-19T11:17:40;26.50;42.50
72576;DHT22;60613;48.658;2.328;2022-08-19T11:20:09;26.60;42.30
72576;DHT22;60613;48.658;2.328;2022-08-19T11:22:35;26.60;42.50
72576;DHT22;60613;48.658;2.328;2022-08-19T11:25:01;26.50;42.40
72576;DHT22;60613;48.658;2.328;2022-08-19T11:27:27;26.60;42.50
72576;DHT22;60613;48.658;2.328;2022-08-19T11:29:54;26.60;42.40
72576;DHT22;60613;48.658;2.328;2022-08-19T11:32:19;26.50;42.40
72576;DHT22;60613;48.658;2.328;2022-08-19T11:34:45;26.50;42.50
72576;DHT22;60613;48.658;2.328;2022-08-19T11:37:11;26.50;42.50
72576;DHT22;60613;48.658;2.328;2022-08-19T11:39:36;26.50;42.50
72576;DHT22;60613;48.658;2.328;2022-08-19T11:42:04;26.60;42.50
72576;DHT22;60613;48.658;2.328;2022-08-19T11:44:50;26.50;42.40
72576;DHT22;60613;48.658;2.328;2022-08-19T11:47:16;26.60;42.40
72576;DHT22;60613;48.658;2.328;2022-08-19T11:49:42;26.60;42.40
72576;DHT22;60613;48.658;2.328;2022-08-19T11:52:08;26.60;42.30
72576;DHT22;60613;48.658;2.328;2022-08-19T11:54:34;26.60;42.40
72576;DHT22;60613;48.658;2.328;2022-08-19T11:57:02;26.60;42.40
72576;DHT22;60613;48.658;2.328;2022-08-19T11:59:28;26.60;42.40
72576;DHT22;60613;48.658;2.328;2022-08-19T12:01:54;26.70;42.40
72576;DHT22;60613;48.658;2.328;2022-08-19T12:04:21;26.70;42.40
72576;DHT22;60613;48.658;2.328;2022-08-19T12:06:47;26.60;42.30
72576;DHT22;60613;48.658;2.328;2022-08-19T12:09:12;26.70;42.40
72576;DHT22;60613;48.658;2.328;2022-08-19T12:11:39;26.70;42.30
72576;DHT22;60613;48.658;2.328;2022-08-19T12:14:06;26.60;42.30
72576;DHT22;60613;48.658;2.328;2022-08-19T12:16:32;26.60;42.40
72576;DHT22;60613;48.658;2.328;2022-08-19T12:18:59;26.60;42.40
72576;DHT22;60613;48.658;2.328;2022-08-19T12:21:29;26.70;42.40
72576;DHT22;60613;48.658;2.328;2022-08-19T12:23:57;26.60;42.30
72576;DHT22;60613;48.658;2.328;2022-08-19T12:26:24;26.60;42.40
72576;DHT22;60613;48.658;2.328;2022-08-19T12:28:50;26.60;42.40
72576;DHT22;60613;48.658;2.328;2022-08-19T12:31:16;26.70;42.50
72576;DHT22;60613;48.658;2.328;2022-08-19T12:33:43;26.70;42.30
72576;DHT22;60613;48.658;2.328;2022-08-19T12:36:10;26.70;42.30
72576;DHT22;60613;48.658;2.328;2022-08-19T12:38:37;26.70;42.20
72576;DHT22;60613;48.658;2.328;2022-08-19T12:41:04;26.70;42.30
72576;DHT22;60613;48.658;2.328;2022-08-19T12:43:35;26.70;42.30
72576;DHT22;60613;48.658;2.328;2022-08-19T12:46:05;26.70;42.30
72576;DHT22;60613;48.658;2.328;2022-08-19T12:48:32;26.70;42.30
72576;DHT22;60613;48.658;2.328;2022-08-19T12:50:58;26.70;42.40
72576;DHT22;60613;48.658;2.328;2022-08-19T12:53:24;26.70;42.50
72576;DHT22;60613;48.658;2.328;2022-08-19T12:55:57;26.70;42.50
72576;DHT22;60613;48.658;2.328;2022-08-19T12:58:25;26.70;42.40
72576;DHT22;60613;48.658;2.328;2022-08-19T13:00:51;26.70;42.50
72576;DHT22;60613;48.658;2.328;2022-08-19T13:03:17;26.60;42.50
72576;DHT22;60613;48.658;2.328;2022-08-19T13:05:42;26.60;42.60
72576;DHT22;60613;48.658;2.328;2022-08-19T13:08:08;26.60;42.60
72576;DHT22;60613;48.658;2.328;2022-08-19T13:10:35;26.60;42.50
72576;DHT22;60613;48.658;2.328;2022-08-19T13:13:03;26.60;42.60
72576;DHT22;60613;48.658;2.328;2022-08-19T13:15:34;26.70;42.60
72576;DHT22;60613;48.658;2.328;2022-08-19T13:18:00;26.70;42.60
72576;DHT22;60613;48.658;2.328;2022-08-19T13:20:26;26.60;42.50
72576;DHT22;60613;48.658;2.328;2022-08-19T13:22:53;26.70;42.70
72576;DHT22;60613;48.658;2.328;2022-08-19T13:25:19;26.60;42.60
72576;DHT22;60613;48.658;2.328;2022-08-19T13:27:46;26.60;42.60
72576;DHT22;60613;48.658;2.328;2022-08-19T13:30:14;26.60;42.60
72576;DHT22;60613;48.658;2.328;2022-08-19T13:32:58;26.60;42.70
72576;DHT22;60613;48.658;2.328;2022-08-19T13:35:44;26.60;42.70
72576;DHT22;60613;48.658;2.328;2022-08-19T13:38:10;26.60;42.70
72576;DHT22;60613;48.658;2.328;2022-08-19T13:40:36;26.60;42.80
72576;DHT22;60613;48.658;2.328;2022-08-19T13:43:04;26.60;42.70
72576;DHT22;60613;48.658;2.328;2022-08-19T13:45:32;26.60;42.80
72576;DHT22;60613;48.658;2.328;2022-08-19T13:48:04;26.60;42.80
72576;DHT22;60613;48.658;2.328;2022-08-19T13:50:40;26.50;42.70
72576;DHT22;60613;48.658;2.328;2022-08-19T13:53:07;26.50;44.00
72576;DHT22;60613;48.658;2.328;2022-08-19T13:55:33;26.60;43.00
72576;DHT22;60613;48.658;2.328;2022-08-19T13:58:00;26.50;42.90
72576;DHT22;60613;48.658;2.328;2022-08-19T14:00:32;26.50;42.90
72576;DHT22;60613;48.658;2.328;2022-08-19T14:02:58;26.50;42.90
72576;DHT22;60613;48.658;2.328;2022-08-19T14:05:26;26.50;42.90
72576;DHT22;60613;48.658;2.328;2022-08-19T14:07:52;26.50;43.00
72576;DHT22;60613;48.658;2.328;2022-08-19T14:10:19;26.50;43.00
72576;DHT22;60613;48.658;2.328;2022-08-19T14:12:45;26.50;43.00
72576;DHT22;60613;48.658;2.328;2022-08-19T14:15:13;26.50;43.00
72576;DHT22;60613;48.658;2.328;2022-08-19T14:17:39;26.50;43.10
72576;DHT22;60613;48.658;2.328;2022-08-19T14:20:07;26.50;42.90
72576;DHT22;60613;48.658;2.328;2022-08-19T14:22:39;26.50;42.90
72576;DHT22;60613;48.658;2.328;2022-08-19T14:25:06;26.50;42.90
72576;DHT22;60613;48.658;2.328;2022-08-19T14:27:33;26.50;42.80
72576;DHT22;60613;48.658;2.328;2022-08-19T14:29:59;26.60;42.90
72576;DHT22;60613;48.658;2.328;2022-08-19T14:32:25;26.60;42.90
72576;DHT22;60613;48.658;2.328;2022-08-19T14:34:52;26.50;42.90
72576;DHT22;60613;48.658;2.328;2022-08-19T14:37:18;26.50;42.90
72576;DHT22;60613;48.658;2.328;2022-08-19T14:39:44;26.50;42.90
72576;DHT22;60613;48.658;2.328;2022-08-19T14:42:10;26.50;42.90
72576;DHT22;60613;48.658;2.328;2022-08-19T14:44:36;26.60;43.00
72576;DHT22;60613;48.658;2.328;2022-08-19T14:47:03;26.50;42.90
72576;DHT22;60613;48.658;2.328;2022-08-19T14:49:28;26.50;42.90
72576;DHT22;60613;48.658;2.328;2022-08-19T14:51:54;26.50;42.90
72576;DHT22;60613;48.658;2.328;2022-08-19T14:54:20;26.60;43.00
72576;DHT22;60613;48.658;2.328;2022-08-19T14:56:46;26.50;42.90
72576;DHT22;60613;48.658;2.328;2022-08-19T14:59:12;26.60;43.00
72576;DHT22;60613;48.658;2.328;2022-08-19T15:01:37;26.60;43.00
72576;DHT22;60613;48.658;2.328;2022-08-19T15:04:03;26.60;42.90
72576;DHT22;60613;48.658;2.328;2022-08-19T15:06:29;26.60;42.90
72576;DHT22;60613;48.658;2.328;2022-08-19T15:08:55;26.60;42.90
72576;DHT22;60613;48.658;2.328;2022-08-19T15:11:23;26.60;42.90
72576;DHT22;60613;48.658;2.328;2022-08-19T15:13:49;26.60;42.80
72576;DHT22;60613;48.658;2.328;2022-08-19T15:16:16;26.60;42.80
72576;DHT22;60613;48.658;2.328;2022-08-19T15:18:43;26.50;42.90
72576;DHT22;60613;48.658;2.328;2022-08-19T15:21:11;26.60;42.90
72576;DHT22;60613;48.658;2.328;2022-08-19T15:23:41;26.50;42.90
72576;DHT22;60613;48.658;2.328;2022-08-19T15:26:07;26.60;43.00
72576;DHT22;60613;48.658;2.328;2022-08-19T15:28:34;26.60;43.00
72576;DHT22;60613;48.658;2.328;2022-08-19T15:31:00;26.50;42.90
72576;DHT22;60613;48.658;2.328;2022-08-19T15:33:26;26.50;43.00
72576;DHT22;60613;48.658;2.328;2022-08-19T15:35:52;26.50;42.90
72576;DHT22;60613;48.658;2.328;2022-08-19T15:38:19;26.60;42.90
72576;DHT22;60613;48.658;2.328;2022-08-19T15:40:50;26.60;42.90
72576;DHT22;60613;48.658;2.328;2022-08-19T15:43:18;26.60;42.90